sensor_id;sensor_type;location;lat;lon;timestamp;P1;durP1;ratioP1;P2;durP2;ratioP2
5483;SDS011;2764;48.794;8.326;2022-09-02T00:00:30;16.73;;;14.23;;
5483;SDS011;2764;48.794;8.326;2022-09-02T00:01:34;16.67;;;13.50;;
5483;SDS011;2764;48.794;8.326;2022-09-02T00:02:40;13.70;;;12.30;;
5483;SDS011;2764;48.794;8.326;2022-09-02T00:03:43;19.33;;;12.93;;
5483;SDS011;2764;48.794;8.326;2022-09-02T00:04:45;13.60;;;12.20;;
5483;SDS011;2764;48.794;8.326;2022-09-02T00:05:46;16.07;;;11.87;;
5483;SDS011;2764;48.794;8.326;2022-09-02T00:06:49;18.30;;;12.67;;
5483;SDS011;2764;48.794;8.326;2022-09-02T00:07:53;17.93;;;12.20;;
5483;SDS011;2764;48.794;8.326;2022-09-02T00:08:55;13.37;;;11.97;;
5483;SDS011;2764;48.794;8.326;2022-09-02T00:09:57;16.97;;;12.67;;
5483;SDS011;2764;48.794;8.326;2022-09-02T00:11:00;12.17;;;10.80;;
5483;SDS011;2764;48.794;8.326;2022-09-02T00:12:05;19.53;;;12.00;;
5483;SDS011;2764;48.794;8.326;2022-09-02T00:13:09;16.13;;;11.20;;
5483;SDS011;2764;48.794;8.326;2022-09-02T00:14:14;14.17;;;10.70;;
5483;SDS011;2764;48.794;8.326;2022-09-02T00:15:20;12.10;;;11.00;;
5483;SDS011;2764;48.794;8.326;2022-09-02T00:16:23;15.30;;;11.10;;
5483;SDS011;2764;48.794;8.326;2022-09-02T00:17:26;12.70;;;11.40;;
5483;SDS011;2764;48.794;8.326;2022-09-02T00:18:28;12.13;;;11.03;;
5483;SDS011;2764;48.794;8.326;2022-09-02T00:19:30;11.83;;;10.73;;
5483;SDS011;2764;48.794;8.326;2022-09-02T00:20:32;10.93;;;10.00;;
5483;SDS011;2764;48.794;8.326;2022-09-02T00:21:33;12.50;;;9.77;;
5483;SDS011;2764;48.794;8.326;2022-09-02T00:22:36;11.40;;;10.37;;
5483;SDS011;2764;48.794;8.326;2022-09-02T00:23:38;9.40;;;8.60;;
5483;SDS011;2764;48.794;8.326;2022-09-02T00:24:40;8.83;;;8.07;;
5483;SDS011;2764;48.794;8.326;2022-09-02T00:25:42;9.40;;;8.53;;
5483;SDS011;2764;48.794;8.326;2022-09-02T00:26:45;9.43;;;8.67;;
5483;SDS011;2764;48.794;8.326;2022-09-02T00:27:47;9.27;;;8.40;;
5483;SDS011;2764;48.794;8.326;2022-09-02T00:28:49;8.80;;;8.10;;
5483;SDS011;2764;48.794;8.326;2022-09-02T00:29:56;7.80;;;7.00;;
5483;SDS011;2764;48.794;8.326;2022-09-02T00:30:58;7.77;;;7.20;;
5483;SDS011;2764;48.794;8.326;2022-09-02T00:31:59;7.40;;;6.90;;
5483;SDS011;2764;48.794;8.326;2022-09-02T00:33:01;7.70;;;7.00;;
5483;SDS011;2764;48.794;8.326;2022-09-02T00:34:03;7.10;;;6.53;;
5483;SDS011;2764;48.794;8.326;2022-09-02T00:35:06;6.50;;;5.57;;
5483;SDS011;2764;48.794;8.326;2022-09-02T00:36:08;6.43;;;5.93;;
5483;SDS011;2764;48.794;8.326;2022-09-02T00:37:09;6.10;;;5.53;;
5483;SDS011;2764;48.794;8.326;2022-09-02T00:38:11;16.50;;;5.33;;
5483;SDS011;2764;48.794;8.326;2022-09-02T00:39:13;6.10;;;5.60;;
5483;SDS011;2764;48.794;8.326;2022-09-02T00:40:15;5.57;;;5.17;;
5483;SDS011;2764;48.794;8.326;2022-09-02T00:41:19;6.63;;;5.70;;
5483;SDS011;2764;48.794;8.326;2022-09-02T00:42:24;5.97;;;5.60;;
5483;SDS011;2764;48.794;8.326;2022-09-02T00:44:53;5.63;;;5.13;;
5483;SDS011;2764;48.794;8.326;2022-09-02T00:45:54;5.63;;;5.10;;
5483;SDS011;2764;48.794;8.326;2022-09-02T00:46:56;5.23;;;4.83;;
5483;SDS011;2764;48.794;8.326;2022-09-02T00:47:57;5.07;;;4.63;;
5483;SDS011;2764;48.794;8.326;2022-09-02T00:50:27;5.50;;;5.10;;
5483;SDS011;2764;48.794;8.326;2022-09-02T00:51:41;5.83;;;5.30;;
5483;SDS011;2764;48.794;8.326;2022-09-02T00:52:48;5.40;;;5.10;;
5483;SDS011;2764;48.794;8.326;2022-09-02T00:53:53;5.57;;;5.27;;
5483;SDS011;2764;48.794;8.326;2022-09-02T00:54:56;6.00;;;4.70;;
5483;SDS011;2764;48.794;8.326;2022-09-02T00:56:02;6.00;;;5.60;;
5483;SDS011;2764;48.794;8.326;2022-09-02T00:57:06;5.93;;;5.43;;
5483;SDS011;2764;48.794;8.326;2022-09-02T00:58:18;6.10;;;5.57;;
5483;SDS011;2764;48.794;8.326;2022-09-02T00:59:24;7.77;;;5.33;;
5483;SDS011;2764;48.794;8.326;2022-09-02T01:00:36;5.77;;;5.23;;
5483;SDS011;2764;48.794;8.326;2022-09-02T01:01:42;4.77;;;4.57;;
5483;SDS011;2764;48.794;8.326;2022-09-02T01:02:48;5.60;;;5.20;;
5483;SDS011;2764;48.794;8.326;2022-09-02T01:03:52;6.70;;;4.90;;
5483;SDS011;2764;48.794;8.326;2022-09-02T01:04:54;6.07;;;5.50;;
5483;SDS011;2764;48.794;8.326;2022-09-02T01:05:57;5.20;;;4.90;;
5483;SDS011;2764;48.794;8.326;2022-09-02T01:06:59;4.90;;;4.50;;
5483;SDS011;2764;48.794;8.326;2022-09-02T01:08:01;5.20;;;4.70;;
5483;SDS011;2764;48.794;8.326;2022-09-02T01:09:09;5.17;;;4.77;;
5483;SDS011;2764;48.794;8.326;2022-09-02T01:10:16;4.80;;;4.40;;
5483;SDS011;2764;48.794;8.326;2022-09-02T01:11:20;5.20;;;4.70;;
5483;SDS011;2764;48.794;8.326;2022-09-02T01:12:22;4.87;;;4.57;;
5483;SDS011;2764;48.794;8.326;2022-09-02T01:13:29;5.33;;;5.00;;
5483;SDS011;2764;48.794;8.326;2022-09-02T01:14:35;5.70;;;4.30;;
5483;SDS011;2764;48.794;8.326;2022-09-02T01:15:45;4.77;;;4.57;;
5483;SDS011;2764;48.794;8.326;2022-09-02T01:17:02;5.40;;;4.90;;
5483;SDS011;2764;48.794;8.326;2022-09-02T01:18:06;5.77;;;5.00;;
5483;SDS011;2764;48.794;8.326;2022-09-02T01:19:21;4.43;;;4.13;;
5483;SDS011;2764;48.794;8.326;2022-09-02T01:20:24;4.10;;;3.90;;
5483;SDS011;2764;48.794;8.326;2022-09-02T01:21:26;4.10;;;3.70;;
5483;SDS011;2764;48.794;8.326;2022-09-02T01:22:29;4.50;;;3.90;;
5483;SDS011;2764;48.794;8.326;2022-09-02T01:23:32;4.10;;;3.90;;
5483;SDS011;2764;48.794;8.326;2022-09-02T01:24:35;3.67;;;3.47;;
5483;SDS011;2764;48.794;8.326;2022-09-02T01:25:36;7.33;;;4.00;;
5483;SDS011;2764;48.794;8.326;2022-09-02T01:26:38;7.90;;;4.47;;
5483;SDS011;2764;48.794;8.326;2022-09-02T01:27:40;4.27;;;4.00;;
5483;SDS011;2764;48.794;8.326;2022-09-02T01:28:42;4.40;;;4.10;;
5483;SDS011;2764;48.794;8.326;2022-09-02T01:29:44;7.13;;;3.80;;
5483;SDS011;2764;48.794;8.326;2022-09-02T01:30:47;3.70;;;3.50;;
5483;SDS011;2764;48.794;8.326;2022-09-02T01:31:51;3.23;;;3.10;;
5483;SDS011;2764;48.794;8.326;2022-09-02T01:32:53;3.90;;;3.50;;
5483;SDS011;2764;48.794;8.326;2022-09-02T01:33:56;4.60;;;4.00;;
5483;SDS011;2764;48.794;8.326;2022-09-02T01:34:58;4.43;;;4.10;;
5483;SDS011;2764;48.794;8.326;2022-09-02T01:36:01;4.10;;;3.80;;
5483;SDS011;2764;48.794;8.326;2022-09-02T01:37:04;3.83;;;3.63;;
5483;SDS011;2764;48.794;8.326;2022-09-02T01:38:07;4.73;;;4.37;;
5483;SDS011;2764;48.794;8.326;2022-09-02T01:39:09;4.43;;;4.13;;
5483;SDS011;2764;48.794;8.326;2022-09-02T01:40:13;6.70;;;3.80;;
5483;SDS011;2764;48.794;8.326;2022-09-02T01:41:17;4.77;;;4.47;;
5483;SDS011;2764;48.794;8.326;2022-09-02T01:42:19;6.03;;;3.70;;
5483;SDS011;2764;48.794;8.326;2022-09-02T01:43:23;4.93;;;4.50;;
5483;SDS011;2764;48.794;8.326;2022-09-02T01:44:26;4.10;;;3.90;;
5483;SDS011;2764;48.794;8.326;2022-09-02T01:45:27;4.43;;;4.10;;
5483;SDS011;2764;48.794;8.326;2022-09-02T01:46:30;8.93;;;3.97;;
5483;SDS011;2764;48.794;8.326;2022-09-02T01:47:33;5.00;;;4.10;;
5483;SDS011;2764;48.794;8.326;2022-09-02T01:48:36;5.43;;;4.27;;
5483;SDS011;2764;48.794;8.326;2022-09-02T01:49:38;6.57;;;4.20;;
5483;SDS011;2764;48.794;8.326;2022-09-02T01:50:43;3.80;;;3.60;;
5483;SDS011;2764;48.794;8.326;2022-09-02T01:51:48;4.60;;;4.30;;
5483;SDS011;2764;48.794;8.326;2022-09-02T01:52:50;4.87;;;4.40;;
5483;SDS011;2764;48.794;8.326;2022-09-02T01:53:51;4.00;;;3.80;;
5483;SDS011;2764;48.794;8.326;2022-09-02T01:54:53;4.60;;;4.30;;
5483;SDS011;2764;48.794;8.326;2022-09-02T01:55:55;4.13;;;3.67;;
5483;SDS011;2764;48.794;8.326;2022-09-02T01:56:57;4.40;;;4.00;;
5483;SDS011;2764;48.794;8.326;2022-09-02T01:57:58;4.40;;;4.10;;
5483;SDS011;2764;48.794;8.326;2022-09-02T01:59:02;5.30;;;3.93;;
5483;SDS011;2764;48.794;8.326;2022-09-02T02:00:06;7.03;;;4.00;;
5483;SDS011;2764;48.794;8.326;2022-09-02T02:01:09;4.40;;;4.10;;
5483;SDS011;2764;48.794;8.326;2022-09-02T02:02:12;5.03;;;4.10;;
5483;SDS011;2764;48.794;8.326;2022-09-02T02:03:14;4.20;;;4.00;;
5483;SDS011;2764;48.794;8.326;2022-09-02T02:04:16;5.00;;;4.70;;
5483;SDS011;2764;48.794;8.326;2022-09-02T02:05:18;4.60;;;4.20;;
5483;SDS011;2764;48.794;8.326;2022-09-02T02:06:20;11.50;;;5.13;;
5483;SDS011;2764;48.794;8.326;2022-09-02T02:07:21;8.07;;;4.53;;
5483;SDS011;2764;48.794;8.326;2022-09-02T02:08:24;4.27;;;3.87;;
5483;SDS011;2764;48.794;8.326;2022-09-02T02:09:25;9.90;;;4.77;;
5483;SDS011;2764;48.794;8.326;2022-09-02T02:10:27;5.43;;;5.00;;
5483;SDS011;2764;48.794;8.326;2022-09-02T02:11:29;8.30;;;4.80;;
5483;SDS011;2764;48.794;8.326;2022-09-02T02:12:31;6.30;;;5.00;;
5483;SDS011;2764;48.794;8.326;2022-09-02T02:13:32;5.70;;;5.30;;
5483;SDS011;2764;48.794;8.326;2022-09-02T02:14:34;5.30;;;4.90;;
5483;SDS011;2764;48.794;8.326;2022-09-02T02:15:37;5.90;;;5.27;;
5483;SDS011;2764;48.794;8.326;2022-09-02T02:16:39;5.47;;;4.97;;
5483;SDS011;2764;48.794;8.326;2022-09-02T02:17:41;5.80;;;5.30;;
5483;SDS011;2764;48.794;8.326;2022-09-02T02:18:43;5.87;;;5.20;;
5483;SDS011;2764;48.794;8.326;2022-09-02T02:19:44;6.40;;;4.60;;
5483;SDS011;2764;48.794;8.326;2022-09-02T02:20:46;8.87;;;5.07;;
5483;SDS011;2764;48.794;8.326;2022-09-02T02:21:48;6.00;;;5.07;;
5483;SDS011;2764;48.794;8.326;2022-09-02T02:22:49;5.80;;;5.40;;
5483;SDS011;2764;48.794;8.326;2022-09-02T02:23:51;6.30;;;5.10;;
5483;SDS011;2764;48.794;8.326;2022-09-02T02:24:53;8.70;;;4.53;;
5483;SDS011;2764;48.794;8.326;2022-09-02T02:25:55;4.43;;;4.13;;
5483;SDS011;2764;48.794;8.326;2022-09-02T02:26:56;10.17;;;4.60;;
5483;SDS011;2764;48.794;8.326;2022-09-02T02:27:58;4.73;;;4.50;;
5483;SDS011;2764;48.794;8.326;2022-09-02T02:29:00;9.33;;;3.70;;
5483;SDS011;2764;48.794;8.326;2022-09-02T02:30:03;7.03;;;4.40;;
5483;SDS011;2764;48.794;8.326;2022-09-02T02:31:06;4.37;;;3.97;;
5483;SDS011;2764;48.794;8.326;2022-09-02T02:32:08;4.00;;;3.70;;
5483;SDS011;2764;48.794;8.326;2022-09-02T02:33:11;3.97;;;3.67;;
5483;SDS011;2764;48.794;8.326;2022-09-02T02:34:13;4.27;;;3.97;;
5483;SDS011;2764;48.794;8.326;2022-09-02T02:35:15;4.37;;;4.07;;
5483;SDS011;2764;48.794;8.326;2022-09-02T02:36:19;8.00;;;3.80;;
5483;SDS011;2764;48.794;8.326;2022-09-02T02:37:21;4.17;;;3.77;;
5483;SDS011;2764;48.794;8.326;2022-09-02T02:38:26;4.30;;;4.10;;
5483;SDS011;2764;48.794;8.326;2022-09-02T02:39:38;4.20;;;3.90;;
5483;SDS011;2764;48.794;8.326;2022-09-02T02:40:41;3.50;;;3.40;;
5483;SDS011;2764;48.794;8.326;2022-09-02T02:41:43;9.33;;;4.53;;
5483;SDS011;2764;48.794;8.326;2022-09-02T02:42:45;4.87;;;4.47;;
5483;SDS011;2764;48.794;8.326;2022-09-02T02:43:48;4.93;;;4.53;;
5483;SDS011;2764;48.794;8.326;2022-09-02T02:44:49;9.70;;;5.00;;
5483;SDS011;2764;48.794;8.326;2022-09-02T02:45:51;4.37;;;4.07;;
5483;SDS011;2764;48.794;8.326;2022-09-02T02:46:54;4.87;;;4.53;;
5483;SDS011;2764;48.794;8.326;2022-09-02T02:47:56;7.63;;;5.00;;
5483;SDS011;2764;48.794;8.326;2022-09-02T02:48:58;5.27;;;4.60;;
5483;SDS011;2764;48.794;8.326;2022-09-02T02:50:00;5.50;;;5.00;;
5483;SDS011;2764;48.794;8.326;2022-09-02T02:51:01;9.23;;;5.40;;
5483;SDS011;2764;48.794;8.326;2022-09-02T02:52:04;4.33;;;4.03;;
5483;SDS011;2764;48.794;8.326;2022-09-02T02:53:06;5.63;;;4.73;;
5483;SDS011;2764;48.794;8.326;2022-09-02T02:54:11;5.33;;;4.90;;
5483;SDS011;2764;48.794;8.326;2022-09-02T02:55:14;10.57;;;4.50;;
5483;SDS011;2764;48.794;8.326;2022-09-02T02:56:17;5.97;;;5.20;;
5483;SDS011;2764;48.794;8.326;2022-09-02T02:57:18;4.53;;;4.23;;
5483;SDS011;2764;48.794;8.326;2022-09-02T02:58:20;4.47;;;4.20;;
5483;SDS011;2764;48.794;8.326;2022-09-02T02:59:22;5.00;;;4.30;;
5483;SDS011;2764;48.794;8.326;2022-09-02T03:00:25;6.93;;;4.57;;
5483;SDS011;2764;48.794;8.326;2022-09-02T03:01:29;7.00;;;4.33;;
5483;SDS011;2764;48.794;8.326;2022-09-02T03:02:31;3.73;;;3.60;;
5483;SDS011;2764;48.794;8.326;2022-09-02T03:03:33;5.10;;;4.70;;
5483;SDS011;2764;48.794;8.326;2022-09-02T03:04:35;4.07;;;3.77;;
5483;SDS011;2764;48.794;8.326;2022-09-02T03:05:40;3.93;;;3.60;;
5483;SDS011;2764;48.794;8.326;2022-09-02T03:06:41;4.70;;;4.30;;
5483;SDS011;2764;48.794;8.326;2022-09-02T03:07:43;6.87;;;4.03;;
5483;SDS011;2764;48.794;8.326;2022-09-02T03:08:44;6.00;;;4.10;;
5483;SDS011;2764;48.794;8.326;2022-09-02T03:09:51;5.10;;;4.80;;
5483;SDS011;2764;48.794;8.326;2022-09-02T03:10:53;4.93;;;4.27;;
5483;SDS011;2764;48.794;8.326;2022-09-02T03:11:56;5.17;;;4.87;;
5483;SDS011;2764;48.794;8.326;2022-09-02T03:12:58;8.13;;;4.40;;
5483;SDS011;2764;48.794;8.326;2022-09-02T03:14:01;4.63;;;4.33;;
5483;SDS011;2764;48.794;8.326;2022-09-02T03:15:03;10.67;;;4.27;;
5483;SDS011;2764;48.794;8.326;2022-09-02T03:16:05;4.40;;;4.20;;
5483;SDS011;2764;48.794;8.326;2022-09-02T03:17:07;4.93;;;4.40;;
5483;SDS011;2764;48.794;8.326;2022-09-02T03:18:09;5.10;;;4.53;;
5483;SDS011;2764;48.794;8.326;2022-09-02T03:19:10;6.07;;;4.57;;
5483;SDS011;2764;48.794;8.326;2022-09-02T03:20:14;8.10;;;4.23;;
5483;SDS011;2764;48.794;8.326;2022-09-02T03:21:17;5.43;;;5.03;;
5483;SDS011;2764;48.794;8.326;2022-09-02T03:22:19;6.70;;;4.60;;
5483;SDS011;2764;48.794;8.326;2022-09-02T03:23:20;5.73;;;5.27;;
5483;SDS011;2764;48.794;8.326;2022-09-02T03:24:22;5.23;;;4.80;;
5483;SDS011;2764;48.794;8.326;2022-09-02T03:25:25;4.90;;;4.50;;
5483;SDS011;2764;48.794;8.326;2022-09-02T03:26:33;4.67;;;4.37;;
5483;SDS011;2764;48.794;8.326;2022-09-02T03:27:36;4.90;;;4.47;;
5483;SDS011;2764;48.794;8.326;2022-09-02T03:28:39;5.37;;;4.87;;
5483;SDS011;2764;48.794;8.326;2022-09-02T03:29:40;5.90;;;5.40;;
5483;SDS011;2764;48.794;8.326;2022-09-02T03:30:43;5.30;;;4.67;;
5483;SDS011;2764;48.794;8.326;2022-09-02T03:31:45;5.00;;;4.70;;
5483;SDS011;2764;48.794;8.326;2022-09-02T03:32:47;7.10;;;4.50;;
5483;SDS011;2764;48.794;8.326;2022-09-02T03:33:49;4.70;;;4.40;;
5483;SDS011;2764;48.794;8.326;2022-09-02T03:34:51;14.33;;;4.63;;
5483;SDS011;2764;48.794;8.326;2022-09-02T03:35:52;5.53;;;5.13;;
5483;SDS011;2764;48.794;8.326;2022-09-02T03:36:54;4.67;;;4.37;;
5483;SDS011;2764;48.794;8.326;2022-09-02T03:37:55;8.13;;;4.30;;
5483;SDS011;2764;48.794;8.326;2022-09-02T03:38:58;4.63;;;4.33;;
5483;SDS011;2764;48.794;8.326;2022-09-02T03:40:03;5.90;;;3.93;;
5483;SDS011;2764;48.794;8.326;2022-09-02T03:41:07;5.33;;;5.03;;
5483;SDS011;2764;48.794;8.326;2022-09-02T03:42:09;6.83;;;4.43;;
5483;SDS011;2764;48.794;8.326;2022-09-02T03:43:20;5.50;;;4.83;;
5483;SDS011;2764;48.794;8.326;2022-09-02T03:44:22;4.77;;;4.47;;
5483;SDS011;2764;48.794;8.326;2022-09-02T03:45:23;5.07;;;4.83;;
5483;SDS011;2764;48.794;8.326;2022-09-02T03:46:25;4.90;;;4.50;;
5483;SDS011;2764;48.794;8.326;2022-09-02T03:47:27;4.77;;;4.43;;
5483;SDS011;2764;48.794;8.326;2022-09-02T03:48:33;4.70;;;4.30;;
5483;SDS011;2764;48.794;8.326;2022-09-02T03:49:34;4.30;;;4.00;;
5483;SDS011;2764;48.794;8.326;2022-09-02T03:50:37;6.33;;;5.00;;
5483;SDS011;2764;48.794;8.326;2022-09-02T03:51:41;4.50;;;4.13;;
5483;SDS011;2764;48.794;8.326;2022-09-02T03:52:43;4.90;;;4.47;;
5483;SDS011;2764;48.794;8.326;2022-09-02T03:53:45;4.57;;;4.37;;
5483;SDS011;2764;48.794;8.326;2022-09-02T03:54:47;5.37;;;4.63;;
5483;SDS011;2764;48.794;8.326;2022-09-02T03:55:49;7.37;;;4.10;;
5483;SDS011;2764;48.794;8.326;2022-09-02T03:56:51;6.10;;;4.33;;
5483;SDS011;2764;48.794;8.326;2022-09-02T03:57:53;4.77;;;4.40;;
5483;SDS011;2764;48.794;8.326;2022-09-02T03:58:56;5.57;;;4.53;;
5483;SDS011;2764;48.794;8.326;2022-09-02T03:59:58;6.17;;;4.90;;
5483;SDS011;2764;48.794;8.326;2022-09-02T04:01:02;6.77;;;4.50;;
5483;SDS011;2764;48.794;8.326;2022-09-02T04:02:05;4.70;;;4.20;;
5483;SDS011;2764;48.794;8.326;2022-09-02T04:03:07;7.17;;;4.70;;
5483;SDS011;2764;48.794;8.326;2022-09-02T04:04:09;4.97;;;4.57;;
5483;SDS011;2764;48.794;8.326;2022-09-02T04:05:11;6.97;;;4.80;;
5483;SDS011;2764;48.794;8.326;2022-09-02T04:06:16;9.83;;;4.73;;
5483;SDS011;2764;48.794;8.326;2022-09-02T04:07:21;5.07;;;4.80;;
5483;SDS011;2764;48.794;8.326;2022-09-02T04:08:22;6.00;;;5.50;;
5483;SDS011;2764;48.794;8.326;2022-09-02T04:09:25;7.23;;;5.27;;
5483;SDS011;2764;48.794;8.326;2022-09-02T04:10:26;5.03;;;4.50;;
5483;SDS011;2764;48.794;8.326;2022-09-02T04:11:28;5.63;;;5.13;;
5483;SDS011;2764;48.794;8.326;2022-09-02T04:12:30;6.53;;;5.30;;
5483;SDS011;2764;48.794;8.326;2022-09-02T04:13:32;8.30;;;6.00;;
5483;SDS011;2764;48.794;8.326;2022-09-02T04:14:34;6.80;;;6.13;;
5483;SDS011;2764;48.794;8.326;2022-09-02T04:15:39;6.03;;;4.97;;
5483;SDS011;2764;48.794;8.326;2022-09-02T04:22:11;5.37;;;4.87;;
5483;SDS011;2764;48.794;8.326;2022-09-02T04:23:12;5.73;;;5.23;;
5483;SDS011;2764;48.794;8.326;2022-09-02T04:24:14;8.10;;;4.90;;
5483;SDS011;2764;48.794;8.326;2022-09-02T04:25:16;6.27;;;5.60;;
5483;SDS011;2764;48.794;8.326;2022-09-02T04:26:18;6.17;;;5.50;;
5483;SDS011;2764;48.794;8.326;2022-09-02T04:27:20;5.60;;;5.10;;
5483;SDS011;2764;48.794;8.326;2022-09-02T04:28:22;5.10;;;4.80;;
5483;SDS011;2764;48.794;8.326;2022-09-02T04:29:25;5.87;;;5.27;;
5483;SDS011;2764;48.794;8.326;2022-09-02T04:30:27;7.13;;;5.70;;
5483;SDS011;2764;48.794;8.326;2022-09-02T04:31:28;14.53;;;5.50;;
5483;SDS011;2764;48.794;8.326;2022-09-02T04:32:32;9.53;;;6.07;;
5483;SDS011;2764;48.794;8.326;2022-09-02T04:33:40;10.17;;;5.90;;
5483;SDS011;2764;48.794;8.326;2022-09-02T04:34:42;6.97;;;6.27;;
5483;SDS011;2764;48.794;8.326;2022-09-02T04:35:44;6.47;;;5.87;;
5483;SDS011;2764;48.794;8.326;2022-09-02T04:36:49;6.20;;;5.33;;
5483;SDS011;2764;48.794;8.326;2022-09-02T04:37:51;6.67;;;4.90;;
5483;SDS011;2764;48.794;8.326;2022-09-02T04:38:52;5.23;;;4.77;;
5483;SDS011;2764;48.794;8.326;2022-09-02T04:39:54;5.30;;;4.90;;
5483;SDS011;2764;48.794;8.326;2022-09-02T04:40:58;5.77;;;5.27;;
5483;SDS011;2764;48.794;8.326;2022-09-02T04:41:59;6.10;;;5.30;;
5483;SDS011;2764;48.794;8.326;2022-09-02T04:43:01;5.50;;;5.10;;
5483;SDS011;2764;48.794;8.326;2022-09-02T04:44:04;5.40;;;5.00;;
5483;SDS011;2764;48.794;8.326;2022-09-02T04:45:06;6.97;;;6.27;;
5483;SDS011;2764;48.794;8.326;2022-09-02T04:46:10;5.90;;;5.27;;
5483;SDS011;2764;48.794;8.326;2022-09-02T04:47:15;6.63;;;5.90;;
5483;SDS011;2764;48.794;8.326;2022-09-02T04:48:17;11.50;;;5.60;;
5483;SDS011;2764;48.794;8.326;2022-09-02T04:49:20;7.87;;;5.57;;
5483;SDS011;2764;48.794;8.326;2022-09-02T04:50:21;7.80;;;5.80;;
5483;SDS011;2764;48.794;8.326;2022-09-02T04:51:23;5.90;;;5.50;;
5483;SDS011;2764;48.794;8.326;2022-09-02T04:52:26;8.53;;;4.90;;
5483;SDS011;2764;48.794;8.326;2022-09-02T04:53:28;6.10;;;5.20;;
5483;SDS011;2764;48.794;8.326;2022-09-02T04:54:30;5.47;;;5.17;;
5483;SDS011;2764;48.794;8.326;2022-09-02T04:55:32;5.60;;;5.20;;
5483;SDS011;2764;48.794;8.326;2022-09-02T04:56:34;6.47;;;5.70;;
5483;SDS011;2764;48.794;8.326;2022-09-02T04:57:36;6.20;;;5.70;;
5483;SDS011;2764;48.794;8.326;2022-09-02T04:58:38;5.47;;;5.07;;
5483;SDS011;2764;48.794;8.326;2022-09-02T04:59:39;11.27;;;5.63;;
5483;SDS011;2764;48.794;8.326;2022-09-02T05:00:41;10.27;;;5.30;;
5483;SDS011;2764;48.794;8.326;2022-09-02T05:01:43;13.53;;;5.80;;
5483;SDS011;2764;48.794;8.326;2022-09-02T05:02:45;5.90;;;5.50;;
5483;SDS011;2764;48.794;8.326;2022-09-02T05:03:47;7.57;;;5.60;;
5483;SDS011;2764;48.794;8.326;2022-09-02T05:04:49;6.47;;;5.87;;
5483;SDS011;2764;48.794;8.326;2022-09-02T05:05:59;7.33;;;5.87;;
5483;SDS011;2764;48.794;8.326;2022-09-02T05:07:02;6.13;;;5.63;;
5483;SDS011;2764;48.794;8.326;2022-09-02T05:08:04;6.10;;;5.67;;
5483;SDS011;2764;48.794;8.326;2022-09-02T05:09:05;8.50;;;6.27;;
5483;SDS011;2764;48.794;8.326;2022-09-02T05:10:08;13.30;;;5.87;;
5483;SDS011;2764;48.794;8.326;2022-09-02T05:11:19;7.00;;;6.30;;
5483;SDS011;2764;48.794;8.326;2022-09-02T05:12:22;12.40;;;6.30;;
5483;SDS011;2764;48.794;8.326;2022-09-02T05:13:26;6.53;;;5.93;;
5483;SDS011;2764;48.794;8.326;2022-09-02T05:14:29;7.27;;;6.63;;
5483;SDS011;2764;48.794;8.326;2022-09-02T05:15:31;10.93;;;6.10;;
5483;SDS011;2764;48.794;8.326;2022-09-02T05:16:35;16.47;;;7.60;;
5483;SDS011;2764;48.794;8.326;2022-09-02T05:17:40;9.80;;;6.90;;
5483;SDS011;2764;48.794;8.326;2022-09-02T05:18:42;8.10;;;6.50;;
5483;SDS011;2764;48.794;8.326;2022-09-02T05:19:45;10.90;;;5.50;;
5483;SDS011;2764;48.794;8.326;2022-09-02T05:20:47;6.43;;;5.67;;
5483;SDS011;2764;48.794;8.326;2022-09-02T05:21:49;11.23;;;6.77;;
5483;SDS011;2764;48.794;8.326;2022-09-02T05:22:51;23.10;;;7.37;;
5483;SDS011;2764;48.794;8.326;2022-09-02T05:23:53;13.50;;;7.40;;
5483;SDS011;2764;48.794;8.326;2022-09-02T05:24:55;11.57;;;6.53;;
5483;SDS011;2764;48.794;8.326;2022-09-02T05:25:57;13.63;;;8.10;;
5483;SDS011;2764;48.794;8.326;2022-09-02T05:26:59;14.03;;;6.17;;
5483;SDS011;2764;48.794;8.326;2022-09-02T05:28:00;11.13;;;5.83;;
5483;SDS011;2764;48.794;8.326;2022-09-02T05:29:02;8.70;;;5.90;;
5483;SDS011;2764;48.794;8.326;2022-09-02T05:30:08;6.90;;;6.20;;
5483;SDS011;2764;48.794;8.326;2022-09-02T05:31:12;10.10;;;6.23;;
5483;SDS011;2764;48.794;8.326;2022-09-02T05:32:15;8.53;;;6.30;;
5483;SDS011;2764;48.794;8.326;2022-09-02T05:33:17;7.93;;;5.33;;
5483;SDS011;2764;48.794;8.326;2022-09-02T05:34:18;9.87;;;5.80;;
5483;SDS011;2764;48.794;8.326;2022-09-02T05:35:23;9.17;;;6.50;;
5483;SDS011;2764;48.794;8.326;2022-09-02T05:36:24;11.23;;;6.47;;
5483;SDS011;2764;48.794;8.326;2022-09-02T05:37:26;11.80;;;6.20;;
5483;SDS011;2764;48.794;8.326;2022-09-02T05:38:27;9.70;;;5.83;;
5483;SDS011;2764;48.794;8.326;2022-09-02T05:39:29;17.40;;;6.27;;
5483;SDS011;2764;48.794;8.326;2022-09-02T05:40:31;6.43;;;5.80;;
5483;SDS011;2764;48.794;8.326;2022-09-02T05:41:34;12.03;;;6.77;;
5483;SDS011;2764;48.794;8.326;2022-09-02T05:42:37;14.40;;;7.30;;
5483;SDS011;2764;48.794;8.326;2022-09-02T05:43:40;8.43;;;6.60;;
5483;SDS011;2764;48.794;8.326;2022-09-02T05:44:42;9.80;;;6.80;;
5483;SDS011;2764;48.794;8.326;2022-09-02T05:45:47;14.77;;;6.43;;
5483;SDS011;2764;48.794;8.326;2022-09-02T05:46:51;9.80;;;6.37;;
5483;SDS011;2764;48.794;8.326;2022-09-02T05:47:52;9.90;;;7.43;;
5483;SDS011;2764;48.794;8.326;2022-09-02T05:48:54;15.90;;;7.97;;
5483;SDS011;2764;48.794;8.326;2022-09-02T05:50:06;12.23;;;6.63;;
5483;SDS011;2764;48.794;8.326;2022-09-02T05:51:08;9.77;;;6.50;;
5483;SDS011;2764;48.794;8.326;2022-09-02T05:52:11;12.73;;;7.03;;
5483;SDS011;2764;48.794;8.326;2022-09-02T05:53:13;10.43;;;6.37;;
5483;SDS011;2764;48.794;8.326;2022-09-02T05:54:31;10.93;;;7.60;;
5483;SDS011;2764;48.794;8.326;2022-09-02T05:55:36;11.90;;;7.13;;
5483;SDS011;2764;48.794;8.326;2022-09-02T05:56:41;15.20;;;6.87;;
5483;SDS011;2764;48.794;8.326;2022-09-02T05:57:45;12.93;;;8.03;;
5483;SDS011;2764;48.794;8.326;2022-09-02T05:58:47;19.60;;;9.00;;
5483;SDS011;2764;48.794;8.326;2022-09-02T05:59:49;12.80;;;8.20;;
5483;SDS011;2764;48.794;8.326;2022-09-02T06:00:56;17.23;;;8.10;;
5483;SDS011;2764;48.794;8.326;2022-09-02T06:01:58;14.33;;;8.77;;
5483;SDS011;2764;48.794;8.326;2022-09-02T06:03:00;18.77;;;7.70;;
5483;SDS011;2764;48.794;8.326;2022-09-02T06:04:03;11.70;;;6.37;;
5483;SDS011;2764;48.794;8.326;2022-09-02T06:05:06;7.23;;;5.53;;
5483;SDS011;2764;48.794;8.326;2022-09-02T06:06:12;7.67;;;6.37;;
5483;SDS011;2764;48.794;8.326;2022-09-02T06:07:14;8.13;;;5.47;;
5483;SDS011;2764;48.794;8.326;2022-09-02T06:08:17;22.40;;;6.20;;
5483;SDS011;2764;48.794;8.326;2022-09-02T06:09:19;10.90;;;5.60;;
5483;SDS011;2764;48.794;8.326;2022-09-02T06:10:22;10.90;;;5.47;;
5483;SDS011;2764;48.794;8.326;2022-09-02T06:11:24;8.30;;;5.83;;
5483;SDS011;2764;48.794;8.326;2022-09-02T06:12:28;5.80;;;4.70;;
5483;SDS011;2764;48.794;8.326;2022-09-02T06:13:34;7.87;;;5.03;;
5483;SDS011;2764;48.794;8.326;2022-09-02T06:14:37;5.33;;;4.80;;
5483;SDS011;2764;48.794;8.326;2022-09-02T06:15:42;12.73;;;5.27;;
5483;SDS011;2764;48.794;8.326;2022-09-02T06:16:44;14.33;;;5.87;;
5483;SDS011;2764;48.794;8.326;2022-09-02T06:17:46;5.20;;;4.70;;
5483;SDS011;2764;48.794;8.326;2022-09-02T06:18:48;5.23;;;4.70;;
5483;SDS011;2764;48.794;8.326;2022-09-02T06:19:52;6.87;;;5.20;;
5483;SDS011;2764;48.794;8.326;2022-09-02T06:20:54;20.37;;;6.73;;
5483;SDS011;2764;48.794;8.326;2022-09-02T06:21:56;11.57;;;5.40;;
5483;SDS011;2764;48.794;8.326;2022-09-02T06:22:57;7.73;;;6.10;;
5483;SDS011;2764;48.794;8.326;2022-09-02T06:23:59;14.10;;;6.50;;
5483;SDS011;2764;48.794;8.326;2022-09-02T06:25:00;9.47;;;7.30;;
5483;SDS011;2764;48.794;8.326;2022-09-02T06:26:02;6.90;;;6.20;;
5483;SDS011;2764;48.794;8.326;2022-09-02T06:27:04;10.37;;;6.53;;
5483;SDS011;2764;48.794;8.326;2022-09-02T06:28:07;10.63;;;6.20;;
5483;SDS011;2764;48.794;8.326;2022-09-02T06:29:10;8.20;;;5.90;;
5483;SDS011;2764;48.794;8.326;2022-09-02T06:30:12;7.80;;;5.63;;
5483;SDS011;2764;48.794;8.326;2022-09-02T06:31:15;16.97;;;6.50;;
5483;SDS011;2764;48.794;8.326;2022-09-02T06:32:18;7.43;;;5.77;;
5483;SDS011;2764;48.794;8.326;2022-09-02T06:33:22;7.90;;;4.67;;
5483;SDS011;2764;48.794;8.326;2022-09-02T06:34:24;4.30;;;2.77;;
5483;SDS011;2764;48.794;8.326;2022-09-02T06:35:27;5.30;;;3.10;;
5483;SDS011;2764;48.794;8.326;2022-09-02T06:36:29;11.53;;;3.73;;
5483;SDS011;2764;48.794;8.326;2022-09-02T06:37:31;4.40;;;3.07;;
5483;SDS011;2764;48.794;8.326;2022-09-02T06:38:35;5.27;;;3.30;;